createdAt,value
2019-04-11T00:00:15.284Z,0.00
2019-04-11T00:01:36.080Z,0.00
2019-04-11T00:02:36.735Z,0.00
2019-04-11T00:03:47.451Z,0.00
2019-04-11T00:04:58.795Z,0.00
2019-04-11T00:06:09.577Z,0.00
2019-04-11T00:07:20.422Z,0.00
2019-04-11T00:08:30.445Z,0.00
2019-04-11T00:09:41.154Z,0.00
2019-04-11T00:10:53.426Z,0.00
2019-04-11T00:12:03.037Z,0.00
2019-04-11T00:13:18.919Z,0.00
2019-04-11T00:14:24.742Z,0.00
2019-04-11T00:15:35.454Z,0.00
2019-04-11T00:16:46.154Z,0.00
2019-04-11T00:17:56.870Z,0.00
2019-04-11T00:19:07.567Z,0.00
2019-04-11T00:20:18.751Z,0.00
2019-04-11T00:21:29.457Z,0.00
2019-04-11T00:22:40.181Z,0.00
2019-04-11T00:23:50.889Z,0.00
2019-04-11T00:25:01.600Z,0.00
2019-04-11T00:26:12.305Z,0.00
2019-04-11T00:27:23.004Z,0.00
2019-04-11T00:28:34.048Z,0.00
2019-04-11T00:29:44.847Z,0.00
2019-04-11T00:30:55.127Z,0.00
2019-04-11T00:32:08.047Z,0.00
2019-04-11T00:33:16.760Z,0.00
2019-04-11T00:34:27.467Z,0.00
2019-04-11T00:35:38.167Z,0.00
2019-04-11T00:36:48.863Z,0.00
2019-04-11T00:37:59.596Z,0.00
2019-04-11T00:39:11.119Z,0.00
2019-04-11T00:40:21.529Z,0.00
2019-04-11T00:41:32.343Z,0.00
2019-04-11T00:42:42.986Z,0.00
2019-04-11T00:43:54.549Z,0.00
2019-04-11T00:45:05.345Z,0.00
2019-04-11T00:46:14.887Z,0.00
2019-04-11T00:47:25.794Z,0.00
2019-04-11T00:48:36.312Z,0.00
2019-04-11T00:49:47.019Z,0.00
2019-04-11T00:50:57.729Z,0.00
2019-04-11T00:52:08.687Z,0.00
2019-04-11T00:53:20.378Z,0.00
2019-04-11T00:54:30.956Z,0.00
2019-04-11T00:55:41.783Z,0.00
2019-04-11T00:56:52.670Z,0.00
2019-04-11T00:58:03.498Z,0.00
2019-04-11T00:59:14.156Z,0.00
2019-04-11T01:00:24.320Z,0.00
2019-04-11T01:01:35.680Z,0.00
2019-04-11T01:02:45.720Z,0.00
2019-04-11T01:03:56.447Z,0.00
2019-04-11T01:05:07.574Z,0.00
2019-04-11T01:06:18.267Z,0.00
2019-04-11T01:07:29.115Z,0.00
2019-04-11T01:08:39.946Z,0.00
2019-04-11T01:09:50.708Z,0.00
2019-04-11T01:11:01.000Z,0.00
2019-04-11T01:12:12.200Z,0.00
2019-04-11T01:13:22.394Z,0.00
2019-04-11T01:14:34.053Z,0.00
2019-04-11T01:15:44.796Z,0.00
2019-04-11T01:16:54.521Z,0.00
2019-04-11T01:18:05.601Z,0.00
2019-04-11T01:19:16.379Z,0.00
2019-04-11T01:20:27.242Z,0.00
2019-04-11T01:21:37.813Z,0.00
2019-04-11T01:22:48.726Z,0.00
2019-04-11T01:23:59.611Z,0.00
2019-04-11T01:25:10.448Z,0.00
2019-04-11T01:26:21.216Z,0.00
2019-04-11T01:27:32.069Z,0.00
2019-04-11T01:28:42.883Z,0.00
2019-04-11T01:29:52.895Z,0.00
2019-04-11T01:31:03.591Z,0.00
2019-04-11T01:32:14.314Z,0.00
2019-04-11T01:33:25.000Z,0.00
2019-04-11T01:34:36.994Z,0.00
2019-04-11T01:35:46.413Z,0.00
2019-04-11T01:36:57.541Z,0.00
2019-04-11T01:38:08.300Z,0.00
2019-04-11T01:39:18.974Z,0.00
2019-04-11T01:40:29.838Z,0.00
2019-04-11T01:41:39.929Z,0.00
2019-04-11T01:42:51.364Z,0.00
2019-04-11T01:44:05.261Z,0.00
2019-04-11T01:45:12.044Z,0.00
2019-04-11T01:46:22.736Z,0.00
2019-04-11T01:47:33.423Z,0.00
2019-04-11T01:48:44.209Z,0.00
2019-04-11T01:49:54.960Z,0.00
2019-04-11T01:51:05.668Z,0.00
2019-04-11T01:52:16.386Z,0.00
2019-04-11T01:53:27.097Z,0.00
2019-04-11T01:54:37.760Z,0.00
2019-04-11T01:55:48.480Z,0.00
2019-04-11T01:56:59.169Z,0.00
2019-04-11T01:58:10.839Z,0.00
2019-04-11T01:59:21.542Z,0.00
2019-04-11T02:00:32.243Z,0.00
2019-04-11T02:01:42.950Z,0.00
2019-04-11T02:02:52.918Z,0.00
2019-04-11T02:04:03.633Z,0.00
2019-04-11T02:05:14.013Z,0.00
2019-04-11T02:06:25.623Z,0.00
2019-04-11T02:07:36.467Z,0.00
2019-04-11T02:08:47.174Z,0.00
2019-04-11T02:09:56.837Z,0.00
2019-04-11T02:11:08.189Z,0.00
2019-04-11T02:12:18.248Z,0.00
2019-04-11T02:13:29.851Z,0.00
2019-04-11T02:14:39.672Z,0.00
2019-04-11T02:15:50.192Z,0.00
2019-04-11T02:17:01.233Z,0.00
2019-04-11T02:18:11.600Z,0.00
2019-04-11T02:19:22.333Z,0.00
2019-04-11T02:20:33.375Z,0.00
2019-04-11T02:21:44.171Z,0.00
2019-04-11T02:22:54.992Z,0.00
2019-04-11T02:24:05.801Z,0.00
2019-04-11T02:25:16.441Z,0.00
2019-04-11T02:26:27.268Z,0.00
2019-04-11T02:27:38.125Z,0.00
2019-04-11T02:28:49.820Z,0.00
2019-04-11T02:30:01.224Z,0.00
2019-04-11T02:31:12.072Z,0.00
2019-04-11T02:32:24.590Z,0.00
2019-04-11T02:33:32.936Z,0.00
2019-04-11T02:34:43.885Z,0.00
2019-04-11T02:35:54.376Z,0.00
2019-04-11T02:37:05.033Z,0.00
2019-04-11T02:38:16.509Z,0.00
2019-04-11T02:39:27.467Z,0.00
2019-04-11T02:40:37.338Z,0.00
2019-04-11T02:41:47.578Z,0.00
2019-04-11T02:42:59.408Z,0.00
2019-04-11T02:44:27.310Z,0.00
2019-04-11T02:45:31.299Z,0.00
2019-04-11T02:46:38.274Z,0.00
2019-04-11T02:47:43.933Z,0.00
2019-04-11T02:48:52.212Z,0.00
2019-04-11T02:50:03.703Z,0.00
2019-04-11T02:51:14.536Z,0.00
2019-04-11T02:52:25.315Z,0.00
2019-04-11T02:53:34.581Z,0.00
2019-04-11T02:54:47.258Z,0.00
2019-04-11T02:55:56.900Z,0.00
2019-04-11T02:57:07.927Z,0.00
2019-04-11T02:58:18.689Z,0.00
2019-04-11T02:59:29.815Z,0.00
2019-04-11T03:00:40.283Z,0.00
2019-04-11T03:01:50.871Z,0.00
2019-04-11T03:03:01.657Z,0.00
2019-04-11T03:04:12.757Z,0.00
2019-04-11T03:05:22.011Z,0.00
2019-04-11T03:06:33.374Z,0.00
2019-04-11T03:07:43.318Z,0.00
2019-04-11T03:08:55.062Z,0.00
2019-04-11T03:10:05.117Z,0.00
2019-04-11T03:11:16.695Z,0.00
2019-04-11T03:12:27.596Z,0.00
2019-04-11T03:13:38.086Z,0.00
2019-04-11T03:15:05.398Z,0.00
2019-04-11T03:16:11.091Z,0.00
2019-04-11T03:17:17.366Z,0.00
2019-04-11T03:18:40.746Z,0.00
2019-04-11T03:19:46.848Z,0.00
2019-04-11T03:20:48.344Z,0.00
2019-04-11T03:21:52.433Z,0.00
2019-04-11T03:23:06.222Z,0.00
2019-04-11T03:24:15.346Z,0.00
2019-04-11T03:25:24.802Z,0.00
2019-04-11T03:26:35.667Z,0.00
2019-04-11T03:27:47.471Z,0.00
2019-04-11T03:28:57.566Z,0.00
2019-04-11T03:32:13.437Z,0.00
2019-04-11T03:33:17.179Z,0.00
2019-04-11T03:34:39.815Z,0.00
2019-04-11T03:35:36.930Z,0.00
2019-04-11T03:37:08.841Z,0.00
2019-04-11T03:37:37.302Z,0.00
2019-04-11T03:39:57.424Z,0.00
2019-04-11T03:41:02.460Z,0.00
2019-04-11T03:42:15.976Z,0.00
2019-04-11T03:43:23.089Z,0.00
2019-04-11T03:44:23.437Z,0.00
2019-04-11T03:45:48.076Z,0.00
2019-04-11T03:46:52.462Z,0.00
2019-04-11T03:48:03.244Z,0.00
2019-04-11T03:49:06.095Z,0.00
2019-04-11T03:50:16.507Z,0.00
2019-04-11T03:51:22.333Z,0.00
2019-04-11T03:52:32.737Z,0.00
2019-04-11T03:53:43.190Z,0.00
2019-04-11T03:54:53.976Z,0.00
2019-04-11T03:56:04.425Z,0.00
2019-04-11T03:57:15.736Z,0.00
2019-04-11T03:58:25.848Z,0.00
2019-04-11T03:59:36.728Z,0.00
2019-04-11T04:00:46.843Z,0.00
2019-04-11T04:01:59.700Z,0.00
2019-04-11T04:03:09.245Z,0.00
2019-04-11T04:04:21.336Z,0.00
2019-04-11T04:05:32.363Z,0.00
2019-04-11T04:06:41.500Z,0.00
2019-04-11T04:07:52.492Z,0.00
2019-04-11T04:09:03.151Z,0.00
2019-04-11T04:10:13.970Z,0.00
2019-04-11T04:11:26.728Z,0.00
2019-04-11T04:12:35.725Z,0.00
2019-04-11T04:13:47.089Z,0.00
2019-04-11T04:14:56.213Z,0.00
2019-04-11T04:17:19.148Z,0.00
2019-04-11T04:18:29.889Z,0.00
2019-04-11T04:19:40.351Z,0.00
2019-04-11T04:20:51.205Z,0.00
2019-04-11T04:22:03.117Z,0.00
2019-04-11T04:23:13.925Z,0.00
2019-04-11T04:24:22.996Z,0.00
2019-04-11T04:25:34.748Z,0.00
2019-04-11T04:26:44.330Z,0.00
2019-04-11T04:27:56.689Z,0.00
2019-04-11T04:29:07.402Z,0.00
2019-04-11T04:30:18.113Z,0.00
2019-04-11T04:31:28.530Z,0.00
2019-04-11T04:32:38.649Z,0.00
2019-04-11T04:33:48.861Z,0.00
2019-04-11T04:35:01.107Z,0.00
2019-04-11T04:36:11.005Z,5.63
2019-04-11T04:37:22.358Z,5.63
2019-04-11T04:38:31.690Z,5.63
2019-04-11T04:39:43.519Z,5.63
2019-04-11T04:41:07.354Z,5.63
2019-04-11T04:42:08.879Z,5.63
2019-04-11T04:43:14.649Z,11.25
2019-04-11T04:44:26.450Z,11.25
2019-04-11T04:45:54.143Z,11.25
2019-04-11T04:46:58.173Z,11.25
2019-04-11T04:48:03.298Z,11.25
2019-04-11T04:49:09.207Z,16.88
2019-04-11T04:50:20.039Z,16.88
2019-04-11T04:51:31.208Z,16.88
2019-04-11T04:52:40.877Z,16.88
2019-04-11T04:53:52.122Z,22.50
2019-04-11T04:55:03.922Z,22.50
2019-04-11T04:56:13.449Z,22.50
2019-04-11T04:57:24.442Z,28.13
2019-04-11T04:58:34.387Z,28.13
2019-04-11T04:59:44.890Z,28.13
2019-04-11T05:00:57.369Z,28.13
2019-04-11T05:02:06.651Z,33.75
2019-04-11T05:03:17.754Z,33.75
2019-04-11T05:04:29.609Z,33.75
2019-04-11T05:05:38.945Z,39.38
2019-04-11T05:06:50.907Z,39.38
2019-04-11T05:08:00.667Z,39.38
2019-04-11T05:09:10.738Z,45.00
2019-04-11T05:10:22.159Z,45.00
2019-04-11T05:11:31.826Z,45.00
2019-04-11T05:12:43.941Z,50.63
2019-04-11T05:13:54.490Z,50.63
2019-04-11T05:15:03.860Z,50.63
2019-04-11T05:16:17.537Z,56.25
2019-04-11T05:17:26.406Z,56.25
2019-04-11T05:18:36.440Z,56.25
2019-04-11T05:19:46.794Z,56.25
2019-04-11T05:20:57.463Z,61.88
2019-04-11T05:22:08.547Z,61.88
2019-04-11T05:23:18.790Z,61.88
2019-04-11T05:24:30.479Z,67.50
2019-04-11T05:25:40.134Z,67.50
2019-04-11T05:26:50.813Z,67.50
2019-04-11T05:28:02.260Z,73.13
2019-04-11T05:29:13.171Z,73.13
2019-04-11T05:30:23.118Z,73.13
2019-04-11T05:31:34.442Z,73.13
2019-04-11T05:32:45.171Z,78.75
2019-04-11T05:33:55.968Z,78.75
2019-04-11T05:35:05.507Z,78.75
2019-04-11T05:36:16.537Z,84.38
2019-04-11T05:37:27.013Z,84.38
2019-04-11T05:38:37.930Z,84.38
2019-04-11T05:39:48.263Z,84.38
2019-04-11T05:40:59.474Z,90.00
2019-04-11T05:42:11.203Z,90.00
2019-04-11T05:43:22.550Z,90.00
2019-04-11T05:44:32.573Z,90.00
2019-04-11T05:45:42.295Z,95.63
2019-04-11T05:46:58.534Z,95.63
2019-04-11T05:48:03.564Z,95.63
2019-04-11T05:49:14.245Z,101.25
2019-04-11T05:50:24.927Z,101.25
2019-04-11T05:51:39.364Z,101.25
2019-04-11T05:52:46.276Z,101.25
2019-04-11T05:53:57.733Z,106.88
2019-04-11T05:55:11.492Z,106.88
2019-04-11T05:56:19.174Z,106.88
2019-04-11T05:57:35.323Z,106.88
2019-04-11T05:58:44.351Z,112.50
2019-04-11T05:59:53.461Z,112.50
2019-04-11T06:01:01.365Z,112.50
2019-04-11T06:02:13.003Z,112.50
2019-04-11T06:03:23.957Z,112.50
2019-04-11T06:04:34.481Z,118.13
2019-04-11T06:05:44.962Z,118.13
2019-04-11T06:06:57.262Z,118.13
2019-04-11T06:08:06.611Z,118.13
2019-04-11T06:09:17.018Z,118.13
2019-04-11T06:10:28.287Z,123.75
2019-04-11T06:11:39.078Z,123.75
2019-04-11T06:12:49.081Z,123.75
2019-04-11T06:14:03.736Z,123.75
2019-04-11T06:15:11.566Z,123.75
2019-04-11T06:16:21.139Z,129.38
2019-04-11T06:17:32.332Z,129.38
2019-04-11T06:18:45.457Z,129.38
2019-04-11T06:19:53.593Z,129.38
2019-04-11T06:21:04.038Z,129.38
2019-04-11T06:22:15.075Z,129.38
2019-04-11T06:23:25.763Z,135.00
2019-04-11T06:24:36.493Z,135.00
2019-04-11T06:25:47.224Z,135.00
2019-04-11T06:26:58.883Z,135.00
2019-04-11T06:28:09.618Z,135.00
2019-04-11T06:29:25.805Z,135.00
2019-04-11T06:30:30.911Z,140.63
2019-04-11T06:31:42.328Z,140.63
2019-04-11T06:32:52.310Z,140.63
2019-04-11T06:34:03.006Z,140.63
2019-04-11T06:35:13.699Z,140.63
2019-04-11T06:36:26.582Z,146.25
2019-04-11T06:37:36.118Z,140.63
2019-04-11T06:38:46.808Z,140.63
2019-04-11T06:39:58.238Z,140.63
2019-04-11T06:41:08.346Z,140.63
2019-04-11T06:42:19.175Z,140.63
2019-04-11T06:43:28.861Z,146.25
2019-04-11T06:44:39.796Z,146.25
2019-04-11T06:45:52.359Z,146.25
2019-04-11T06:47:02.695Z,146.25
2019-04-11T06:48:13.550Z,146.25
2019-04-11T06:49:24.577Z,146.25
2019-04-11T06:50:34.066Z,146.25
2019-04-11T06:51:46.272Z,151.88
2019-04-11T06:52:56.052Z,151.88
2019-04-11T06:54:06.680Z,151.88
2019-04-11T06:55:18.275Z,151.88
2019-04-11T06:56:29.354Z,151.88
2019-04-11T06:57:40.338Z,151.88
2019-04-11T06:58:52.472Z,151.88
2019-04-11T07:00:01.194Z,151.88
2019-04-11T07:01:12.015Z,157.50
2019-04-11T07:02:24.496Z,157.50
2019-04-11T07:03:33.829Z,157.50
2019-04-11T07:04:44.098Z,157.50
2019-04-11T07:05:55.292Z,157.50
2019-04-11T07:07:06.509Z,157.50
2019-04-11T07:08:16.162Z,157.50
2019-04-11T07:09:28.741Z,163.13
2019-04-11T07:10:38.559Z,163.13
2019-04-11T07:11:50.472Z,163.13
2019-04-11T07:13:00.692Z,163.13
2019-04-11T07:14:12.418Z,163.13
2019-04-11T07:15:22.983Z,163.13
2019-04-11T07:16:32.642Z,163.13
2019-04-11T07:17:43.844Z,163.13
2019-04-11T07:18:54.839Z,168.75
2019-04-11T07:20:04.791Z,168.75
2019-04-11T07:21:15.506Z,168.75
2019-04-11T07:22:26.420Z,168.75
2019-04-11T07:23:38.356Z,168.75
2019-04-11T07:24:47.871Z,168.75
2019-04-11T07:25:58.588Z,168.75
2019-04-11T07:27:09.539Z,174.38
2019-04-11T07:28:20.030Z,174.38
2019-04-11T07:29:31.531Z,174.38
2019-04-11T07:30:41.679Z,174.38
2019-04-11T07:31:53.044Z,180.00
2019-04-11T07:33:03.936Z,180.00
2019-04-11T07:34:14.713Z,180.00
2019-04-11T07:35:24.989Z,180.00
2019-04-11T07:36:36.097Z,180.00
2019-04-11T07:37:47.393Z,185.63
2019-04-11T07:38:57.089Z,185.63
2019-04-11T07:40:09.467Z,185.63
2019-04-11T07:41:19.529Z,185.63
2019-04-11T07:42:30.958Z,185.63
2019-04-11T07:43:41.508Z,191.25
2019-04-11T07:44:52.557Z,191.25
2019-04-11T07:46:03.292Z,191.25
2019-04-11T07:47:19.270Z,196.88
2019-04-11T07:48:24.970Z,196.88
2019-04-11T07:49:35.490Z,196.88
2019-04-11T07:50:46.563Z,202.50
2019-04-11T07:51:58.079Z,202.50
2019-04-11T07:53:08.678Z,208.13
2019-04-11T07:54:18.486Z,213.75
2019-04-11T07:55:30.031Z,208.13
2019-04-11T07:56:39.971Z,208.13
2019-04-11T07:57:50.709Z,208.13
2019-04-11T07:59:01.450Z,208.13
2019-04-11T08:00:12.806Z,208.13
2019-04-11T08:01:22.945Z,213.75
2019-04-11T08:02:35.451Z,213.75
2019-04-11T08:03:44.930Z,213.75
2019-04-11T08:04:55.692Z,219.38
2019-04-11T08:06:07.501Z,219.38
2019-04-11T08:07:17.704Z,219.38
2019-04-11T08:08:30.127Z,225.00
2019-04-11T08:09:39.702Z,225.00
2019-04-11T08:10:50.581Z,230.63
2019-04-11T08:12:02.385Z,230.63
2019-04-11T08:13:12.363Z,236.25
2019-04-11T08:14:22.648Z,236.25
2019-04-11T08:15:33.534Z,236.25
2019-04-11T08:16:46.812Z,236.25
2019-04-11T08:17:56.410Z,236.25
2019-04-11T08:19:07.592Z,236.25
2019-04-11T08:20:17.973Z,236.25
2019-04-11T08:21:28.740Z,241.88
2019-04-11T08:22:39.489Z,247.50
2019-04-11T08:23:50.248Z,247.50
2019-04-11T08:25:01.003Z,253.13
2019-04-11T08:26:11.753Z,253.13
2019-04-11T08:27:23.214Z,253.13
2019-04-11T08:28:34.390Z,253.13
2019-04-11T08:29:44.380Z,258.75
2019-04-11T08:30:55.162Z,264.38
2019-04-11T08:32:05.697Z,270.00
2019-04-11T08:33:16.336Z,270.00
2019-04-11T08:34:27.137Z,275.63
2019-04-11T08:35:37.857Z,281.25
2019-04-11T08:36:48.966Z,433.13
2019-04-11T08:38:00.950Z,1051.88
2019-04-11T08:39:11.070Z,1591.88
2019-04-11T08:40:21.864Z,1670.63
2019-04-11T08:41:32.113Z,1726.88
2019-04-11T08:42:42.964Z,1749.38
2019-04-11T08:43:53.840Z,1766.25
2019-04-11T08:45:05.938Z,1783.13
2019-04-11T08:46:15.654Z,1777.50
2019-04-11T08:47:40.218Z,1726.88
2019-04-11T08:48:37.574Z,1715.63
2019-04-11T08:49:48.581Z,1743.75
2019-04-11T08:50:59.603Z,1715.63
2019-04-11T08:52:11.592Z,1721.25
2019-04-11T08:53:21.725Z,1738.13
2019-04-11T08:54:33.343Z,1811.25
2019-04-11T08:55:53.110Z,1878.75
2019-04-11T08:56:56.060Z,1918.13
2019-04-11T08:58:07.233Z,1940.63
2019-04-11T08:59:18.882Z,1878.75
2019-04-11T09:00:31.253Z,1856.25
2019-04-11T09:01:42.354Z,1800.00
2019-04-11T09:02:53.461Z,1732.50
2019-04-11T09:04:07.952Z,1738.13
2019-04-11T09:05:18.797Z,1800.00
2019-04-11T09:06:26.907Z,1895.63
2019-04-11T09:07:38.241Z,1980.00
2019-04-11T09:08:49.570Z,2008.13
2019-04-11T09:10:01.974Z,2058.75
2019-04-11T09:11:12.776Z,2081.25
2019-04-11T09:12:24.602Z,2131.88
2019-04-11T09:13:35.610Z,2176.88
2019-04-11T09:14:46.570Z,2120.63
2019-04-11T09:15:57.857Z,2120.63
2019-04-11T09:17:10.095Z,2182.50
2019-04-11T09:18:21.824Z,2171.25
2019-04-11T09:19:32.812Z,2255.63
2019-04-11T09:20:44.145Z,2300.63
2019-04-11T09:21:56.252Z,2435.63
2019-04-11T09:23:07.136Z,2497.50
2019-04-11T09:24:18.747Z,2520.00
2019-04-11T09:25:31.618Z,2520.00
2019-04-11T09:26:42.545Z,2520.00
2019-04-11T09:27:54.462Z,2553.75
2019-04-11T09:29:06.788Z,2587.50
2019-04-11T09:30:17.457Z,2548.13
2019-04-11T09:31:27.882Z,2362.50
2019-04-11T09:32:40.357Z,2373.75
2019-04-11T09:33:51.054Z,2418.75
2019-04-11T09:35:02.641Z,2452.50
2019-04-11T09:36:15.514Z,2430.00
2019-04-11T09:37:25.845Z,2418.75
2019-04-11T09:38:38.164Z,2424.38
2019-04-11T09:39:49.097Z,2441.25
2019-04-11T09:41:00.790Z,2486.25
2019-04-11T09:42:13.340Z,2548.13
2019-04-11T09:43:24.243Z,2581.88
2019-04-11T09:44:35.687Z,2643.75
2019-04-11T09:45:47.954Z,2666.25
2019-04-11T09:46:59.205Z,2694.38
2019-04-11T09:48:14.940Z,2722.50
2019-04-11T09:49:22.732Z,2806.88
2019-04-11T09:50:34.216Z,2851.88
2019-04-11T09:51:45.703Z,2818.13
2019-04-11T09:52:57.951Z,2761.88
2019-04-11T09:54:10.129Z,2745.00
2019-04-11T09:55:21.328Z,2767.50
2019-04-11T09:56:33.316Z,2795.63
2019-04-11T09:57:44.291Z,2851.88
2019-04-11T09:58:56.156Z,2925.00
2019-04-11T10:00:07.939Z,2981.25
2019-04-11T10:01:20.276Z,3048.75
2019-04-11T10:02:31.745Z,3088.13
2019-04-11T10:03:43.516Z,3144.38
2019-04-11T10:04:56.851Z,3172.50
2019-04-11T10:05:26.565Z,3172.50
2019-04-11T10:06:38.869Z,3200.63
2019-04-11T10:07:50.316Z,3268.13
2019-04-11T10:09:01.848Z,3138.75
2019-04-11T10:10:14.965Z,2975.63
2019-04-11T10:11:26.771Z,2835.00
2019-04-11T10:12:38.579Z,2823.75
2019-04-11T10:13:51.200Z,2829.38
2019-04-11T10:15:05.019Z,2818.13
2019-04-11T10:16:16.040Z,2823.75
2019-04-11T10:17:27.875Z,2874.38
2019-04-11T10:18:41.135Z,2902.50
2019-04-11T10:19:52.016Z,2835.00
2019-04-11T10:21:04.737Z,2801.25
2019-04-11T10:22:15.816Z,2739.38
2019-04-11T10:23:28.916Z,2739.38
2019-04-11T10:24:40.853Z,2761.88
2019-04-11T10:25:51.867Z,2829.38
2019-04-11T10:27:04.769Z,2857.50
2019-04-11T10:28:17.475Z,2902.50
2019-04-11T10:29:30.393Z,2880.00
2019-04-11T10:30:41.961Z,2846.25
2019-04-11T10:31:53.124Z,2818.13
2019-04-11T10:33:04.994Z,2784.38
2019-04-11T10:34:17.517Z,2778.75
2019-04-11T10:35:30.279Z,2773.13
2019-04-11T10:36:41.582Z,2739.38
2019-04-11T10:37:53.452Z,2733.75
2019-04-11T10:39:05.466Z,2711.25
2019-04-11T10:40:20.611Z,2700.00
2019-04-11T10:41:30.653Z,2694.38
2019-04-11T10:42:42.471Z,2643.75
2019-04-11T10:43:53.796Z,2615.63
2019-04-11T10:45:06.591Z,2671.88
2019-04-11T10:46:17.805Z,2677.50
2019-04-11T10:47:31.182Z,2643.75
2019-04-11T10:48:44.995Z,2480.63
2019-04-11T10:49:54.665Z,2323.13
2019-04-11T10:51:06.660Z,2356.88
2019-04-11T10:52:18.352Z,2368.13
2019-04-11T10:53:31.201Z,2306.25
2019-04-11T10:54:42.209Z,2340.00
2019-04-11T10:55:54.144Z,2491.88
2019-04-11T10:57:06.079Z,2604.38
2019-04-11T10:58:18.480Z,2598.75
2019-04-11T10:59:32.346Z,2593.13
2019-04-11T11:00:43.237Z,2587.50
2019-04-11T11:01:56.092Z,2593.13
2019-04-11T11:03:07.443Z,2643.75
2019-04-11T11:04:20.036Z,2610.00
2019-04-11T11:05:32.575Z,2632.50
2019-04-11T11:06:46.468Z,2615.63
2019-04-11T11:07:57.277Z,2587.50
2019-04-11T11:09:10.120Z,2553.75
2019-04-11T11:10:21.681Z,2525.63
2019-04-11T11:11:33.165Z,2469.38
2019-04-11T11:12:45.474Z,2435.63
2019-04-11T11:13:58.410Z,2435.63
2019-04-11T11:15:09.771Z,2446.88
2019-04-11T11:16:22.320Z,2486.25
2019-04-11T11:17:54.529Z,2491.88
2019-04-11T11:19:15.383Z,2458.13
2019-04-11T11:20:10.619Z,2418.75
2019-04-11T11:21:09.844Z,2340.00
2019-04-11T11:22:23.753Z,2362.50
2019-04-11T11:23:35.270Z,2424.38
2019-04-11T11:24:46.365Z,2407.50
2019-04-11T11:25:58.524Z,2418.75
2019-04-11T11:27:10.109Z,2373.75
2019-04-11T11:28:22.072Z,2345.63
2019-04-11T11:29:35.003Z,2289.38
2019-04-11T11:30:47.403Z,2283.75
2019-04-11T11:31:58.517Z,2295.00
2019-04-11T11:33:10.910Z,2300.63
2019-04-11T11:34:24.769Z,2306.25
2019-04-11T11:35:39.080Z,2311.88
2019-04-11T11:36:48.029Z,2323.13
2019-04-11T11:37:59.777Z,2356.88
2019-04-11T11:39:13.099Z,2368.13
2019-04-11T11:40:24.131Z,2328.75
2019-04-11T11:41:36.461Z,2311.88
2019-04-11T11:42:48.044Z,2295.00
2019-04-11T11:44:00.196Z,2278.13
2019-04-11T11:45:13.100Z,2244.38
2019-04-11T11:46:26.734Z,2227.50
2019-04-11T11:47:39.541Z,2317.50
2019-04-11T11:48:52.194Z,2283.75
2019-04-11T11:50:02.790Z,2289.38
2019-04-11T11:51:13.061Z,2289.38
2019-04-11T11:52:24.781Z,2300.63
2019-04-11T11:53:35.925Z,2323.13
2019-04-11T11:54:48.341Z,2295.00
2019-04-11T11:56:02.000Z,2295.00
2019-04-11T11:57:12.870Z,2289.38
2019-04-11T11:58:25.777Z,2396.25
2019-04-11T11:59:36.954Z,2441.25
2019-04-11T12:00:50.736Z,2446.88
2019-04-11T12:02:00.749Z,2441.25
2019-04-11T12:03:13.151Z,2469.38
2019-04-11T12:04:26.166Z,2458.13
2019-04-11T12:05:38.882Z,2486.25
2019-04-11T12:06:53.233Z,2446.88
2019-04-11T12:08:01.732Z,2486.25
2019-04-11T12:09:14.059Z,2587.50
2019-04-11T12:10:26.133Z,2565.00
2019-04-11T12:11:39.785Z,2503.13
2019-04-11T12:12:51.931Z,2587.50
2019-04-11T12:14:02.639Z,2660.63
2019-04-11T12:15:17.678Z,2711.25
2019-04-11T12:16:26.418Z,2638.13
2019-04-11T12:17:38.489Z,2598.75
2019-04-11T12:18:53.070Z,2548.13
2019-04-11T12:20:08.948Z,2463.75
2019-04-11T12:21:16.269Z,2283.75
2019-04-11T12:22:26.543Z,2328.75
2019-04-11T12:23:48.640Z,2536.88
2019-04-11T12:24:50.304Z,2514.38
2019-04-11T12:26:03.197Z,2531.25
2019-04-11T12:27:14.505Z,2559.38
2019-04-11T12:28:27.657Z,2587.50
2019-04-11T12:29:38.691Z,2666.25
2019-04-11T12:30:55.214Z,2632.50
2019-04-11T12:32:03.877Z,2559.38
2019-04-11T12:33:17.308Z,2536.88
2019-04-11T12:34:28.706Z,2491.88
2019-04-11T12:35:40.582Z,2475.00
2019-04-11T12:36:53.305Z,2396.25
2019-04-11T12:38:04.518Z,2463.75
2019-04-11T12:39:16.383Z,2593.13
2019-04-11T12:40:28.268Z,2688.75
2019-04-11T12:41:40.138Z,2835.00
2019-04-11T12:42:52.003Z,2812.50
2019-04-11T12:44:03.884Z,2728.13
2019-04-11T12:45:15.749Z,2626.88
2019-04-11T12:46:30.065Z,2666.25
2019-04-11T12:47:39.499Z,2790.00
2019-04-11T12:48:51.375Z,2818.13
2019-04-11T12:50:03.256Z,2795.63
2019-04-11T12:51:15.135Z,2829.38
2019-04-11T12:52:27.010Z,2970.00
2019-04-11T12:53:38.881Z,3076.88
2019-04-11T12:54:50.760Z,2941.88
2019-04-11T12:56:02.619Z,2880.00
2019-04-11T12:57:14.621Z,2857.50
2019-04-11T12:58:26.853Z,2773.13
2019-04-11T12:59:38.725Z,2812.50
2019-04-11T13:00:50.594Z,3003.75
2019-04-11T13:02:02.459Z,3127.50
2019-04-11T13:03:14.319Z,3093.75
2019-04-11T13:04:26.186Z,2998.13
2019-04-11T13:05:38.056Z,2975.63
2019-04-11T13:06:49.922Z,2964.38
2019-04-11T13:08:01.784Z,2936.25
2019-04-11T13:09:13.653Z,2986.88
2019-04-11T13:10:25.520Z,3099.38
2019-04-11T13:11:37.575Z,3116.25
2019-04-11T13:12:49.468Z,3082.50
2019-04-11T13:14:01.299Z,3093.75
2019-04-11T13:15:13.173Z,3116.25
2019-04-11T13:16:25.038Z,3313.13
2019-04-11T13:17:36.892Z,3273.75
2019-04-11T13:18:49.262Z,3240.00
2019-04-11T13:20:04.923Z,3172.50
2019-04-11T13:21:13.006Z,3206.25
2019-04-11T13:22:24.884Z,3256.88
2019-04-11T13:23:36.757Z,3138.75
2019-04-11T13:24:48.631Z,2998.13
2019-04-11T13:26:00.487Z,3003.75
2019-04-11T13:27:12.472Z,3110.63
2019-04-11T13:28:25.817Z,3071.25
2019-04-11T13:29:37.738Z,3026.25
2019-04-11T13:30:49.537Z,3071.25
2019-04-11T13:32:01.367Z,3093.75
2019-04-11T13:33:13.207Z,3133.13
2019-04-11T13:34:25.044Z,3189.38
2019-04-11T13:35:36.894Z,3127.50
2019-04-11T13:36:48.713Z,3178.13
2019-04-11T13:38:00.540Z,3155.63
2019-04-11T13:39:12.350Z,3065.63
2019-04-11T13:40:24.186Z,3150.00
2019-04-11T13:41:36.015Z,2863.13
2019-04-11T13:42:47.827Z,2801.25
2019-04-11T13:43:59.640Z,2829.38
2019-04-11T13:45:11.453Z,2660.63
2019-04-11T13:46:23.250Z,2716.88
2019-04-11T13:47:35.057Z,2896.88
2019-04-11T13:48:46.825Z,2975.63
2019-04-11T13:49:58.636Z,2812.50
2019-04-11T13:51:10.438Z,2621.25
2019-04-11T13:52:22.225Z,2638.13
2019-04-11T13:53:34.011Z,2626.88
2019-04-11T13:54:45.792Z,2565.00
2019-04-11T13:55:57.578Z,2604.38
2019-04-11T13:57:09.351Z,2812.50
2019-04-11T13:58:21.125Z,2587.50
2019-04-11T13:59:33.533Z,2446.88
2019-04-11T14:00:45.303Z,2700.00
2019-04-11T14:01:57.054Z,2846.25
2019-04-11T14:03:08.811Z,2863.13
2019-04-11T14:04:20.566Z,2874.38
2019-04-11T14:05:32.314Z,2913.75
2019-04-11T14:06:44.059Z,2801.25
2019-04-11T14:07:55.793Z,2649.38
2019-04-11T14:09:07.537Z,2767.50
2019-04-11T14:10:19.264Z,3048.75
2019-04-11T14:11:31.607Z,2857.50
2019-04-11T14:12:42.719Z,2626.88
2019-04-11T14:13:54.480Z,2677.50
2019-04-11T14:15:06.848Z,2773.13
2019-04-11T14:16:17.839Z,2711.25
2019-04-11T14:17:29.545Z,2610.00
2019-04-11T14:18:42.186Z,2638.13
2019-04-11T14:19:52.933Z,2722.50
2019-04-11T14:21:05.614Z,2756.25
2019-04-11T14:22:17.297Z,2570.63
2019-04-11T14:23:28.974Z,2475.00
2019-04-11T14:24:41.868Z,2452.50
2019-04-11T14:25:52.800Z,2587.50
2019-04-11T14:27:04.473Z,2784.38
2019-04-11T14:28:16.134Z,2705.63
2019-04-11T14:29:27.790Z,2565.00
2019-04-11T14:30:39.439Z,2874.38
2019-04-11T14:31:53.769Z,2379.38
2019-04-11T14:33:02.750Z,2210.63
2019-04-11T14:34:14.397Z,2345.63
2019-04-11T14:35:26.529Z,2401.88
2019-04-11T14:36:38.188Z,2351.25
2019-04-11T14:37:49.838Z,2503.13
2019-04-11T14:39:01.480Z,2593.13
2019-04-11T14:40:13.104Z,2435.63
2019-04-11T14:41:24.725Z,2418.75
2019-04-11T14:42:36.852Z,2452.50
2019-04-11T14:43:48.470Z,2373.75
2019-04-11T14:45:00.075Z,2244.38
2019-04-11T14:46:11.689Z,2300.63
2019-04-11T14:47:23.289Z,2283.75
2019-04-11T14:48:34.886Z,2053.13
2019-04-11T14:49:46.493Z,1428.75
2019-04-11T14:50:58.090Z,714.38
2019-04-11T14:52:10.675Z,528.75
2019-04-11T14:53:22.252Z,500.63
2019-04-11T14:54:33.854Z,461.25
2019-04-11T14:55:46.735Z,450.00
2019-04-11T14:56:56.958Z,438.75
2019-04-11T14:58:08.500Z,410.63
2019-04-11T14:59:23.963Z,399.38